Time;durP1;ratioP1;P1;durP2;ratioP2;P2;SDS_P1;SDS_P2;PMS_P1;PMS_P2;Temp;Humidity;BMP_temperature;BMP_pressure;BME280_temperature;BME280_humidity;BME280_pressure;Samples;Min_cycle;Max_cycle;Signal;HPM_P1;HPM_P2
2023/06/14 00:01:45;;;;;;;5.07;2.30;;;23.30;77.90;;;;;;5010549;28;20053;-73
2023/06/14 00:04:18;;;;;;;6.68;2.13;;;23.30;78.10;;;;;;5026178;28;20041;-73
2023/06/14 00:06:45;;;;;;;3.78;2.05;;;23.30;77.80;;;;;;5036947;28;20064;-73
2023/06/14 00:09:12;;;;;;;3.95;2.08;;;23.30;78.20;;;;;;5028031;28;20049;-73
2023/06/14 00:11:39;;;;;;;5.40;2.00;;;23.30;78.10;;;;;;5019160;28;20038;-73
2023/06/14 00:14:05;;;;;;;4.32;2.20;;;23.30;78.10;;;;;;5033463;28;20544;-73
2023/06/14 00:16:33;;;;;;;3.90;2.00;;;23.30;78.20;;;;;;5039770;28;20049;-73
2023/06/14 00:18:59;;;;;;;4.90;2.20;;;23.30;78.30;;;;;;5043820;28;20108;-72
2023/06/14 00:21:25;;;;;;;5.72;2.30;;;23.20;78.40;;;;;;5021248;28;20149;-73
2023/06/14 00:23:50;;;;;;;4.65;1.90;;;23.30;78.40;;;;;;5043204;28;20044;-74
2023/06/14 00:26:16;;;;;;;2.75;1.92;;;23.30;78.70;;;;;;5004563;28;20044;-73
2023/06/14 00:28:42;;;;;;;5.47;2.20;;;23.30;78.60;;;;;;5027539;28;20453;-73
2023/06/14 00:31:08;;;;;;;6.53;2.13;;;23.30;78.60;;;;;;5044189;28;20095;-73
2023/06/14 00:33:34;;;;;;;3.60;2.08;;;23.20;78.70;;;;;;5010393;28;20499;-73
2023/06/14 00:35:59;;;;;;;4.53;1.80;;;23.30;78.80;;;;;;5043974;28;20133;-73
2023/06/14 00:38:25;;;;;;;4.85;2.38;;;23.20;78.70;;;;;;5030425;28;20049;-73
2023/06/14 00:40:51;;;;;;;3.25;1.98;;;23.20;78.90;;;;;;5021511;28;20042;-73
2023/06/14 00:43:16;;;;;;;4.70;1.77;;;23.20;79.10;;;;;;5036207;28;20041;-74
2023/06/14 00:45:42;;;;;;;5.63;1.92;;;23.20;79.00;;;;;;5019892;28;20483;-73
2023/06/14 00:48:09;;;;;;;3.67;1.90;;;23.30;79.10;;;;;;5031172;28;20073;-73
2023/06/14 00:50:36;;;;;;;5.68;1.92;;;23.20;79.30;;;;;;5029170;28;20049;-74
2023/06/14 00:53:02;;;;;;;3.95;1.90;;;23.20;79.50;;;;;;5030117;28;20049;-73
2023/06/14 00:55:28;;;;;;;6.15;1.70;;;23.20;79.20;;;;;;5030371;28;20095;-73
2023/06/14 00:57:55;;;;;;;3.58;1.70;;;23.20;79.50;;;;;;5029454;28;20080;-73
2023/06/14 01:00:21;;;;;;;2.70;1.85;;;23.20;79.60;;;;;;5013453;28;20054;-75
2023/06/14 01:02:49;;;;;;;6.18;1.85;;;23.20;79.40;;;;;;5026958;28;20048;-73
2023/06/14 01:05:17;;;;;;;4.10;1.50;;;23.20;79.80;;;;;;5053284;28;20045;-73
2023/06/14 01:08:15;;;;;;;7.35;1.90;;;23.20;79.50;;;;;;5029311;28;20045;-74
2023/06/14 01:10:52;;;;;;;3.78;1.90;;;23.20;79.50;;;;;;5014052;28;20500;-73
2023/06/14 01:13:33;;;;;;;3.08;1.77;;;23.10;79.80;;;;;;5030595;28;20056;-72
2023/06/14 01:15:59;;;;;;;4.85;2.00;;;23.10;79.90;;;;;;5029439;28;20041;-72
2023/06/14 01:18:25;;;;;;;4.40;1.98;;;23.10;80.00;;;;;;5034535;28;20049;-72
2023/06/14 01:20:55;;;;;;;2.97;1.55;;;23.10;79.90;;;;;;5030456;28;20060;-72
2023/06/14 01:23:22;;;;;;;5.28;1.70;;;23.10;80.10;;;;;;5040720;28;20053;-72
2023/06/14 01:25:52;;;;;;;5.13;1.90;;;23.10;80.00;;;;;;5027302;28;20134;-75
2023/06/14 01:28:20;;;;;;;3.05;1.77;;;23.10;80.00;;;;;;5029305;28;20041;-72
2023/06/14 01:30:52;;;;;;;3.10;1.60;;;23.10;80.30;;;;;;5025279;28;20394;-73
2023/06/14 01:33:22;;;;;;;4.50;1.67;;;23.10;80.20;;;;;;5027283;28;20041;-73
2023/06/14 01:35:53;;;;;;;2.88;1.85;;;23.10;80.10;;;;;;5033181;28;20103;-73
2023/06/14 01:38:22;;;;;;;3.40;1.80;;;23.10;80.30;;;;;;5014651;28;20462;-73
2023/06/14 01:40:48;;;;;;;2.35;1.67;;;23.00;80.40;;;;;;5029276;28;20115;-74
2023/06/14 01:43:15;;;;;;;4.75;1.80;;;23.00;80.70;;;;;;5043200;28;20128;-73
2023/06/14 01:45:42;;;;;;;4.88;1.77;;;22.90;80.60;;;;;;4997031;28;20057;-75
2023/06/14 01:48:09;;;;;;;3.50;1.80;;;23.00;80.70;;;;;;5037034;28;20049;-73
2023/06/14 01:50:35;;;;;;;4.82;2.03;;;23.00;80.70;;;;;;5029361;28;20077;-73
2023/06/14 01:53:01;;;;;;;3.28;1.88;;;22.90;80.70;;;;;;5029174;28;20080;-73
2023/06/14 01:55:27;;;;;;;6.03;1.80;;;23.00;80.90;;;;;;5033922;28;20042;-73
2023/06/14 01:57:53;;;;;;;4.25;1.85;;;23.00;80.80;;;;;;5035519;28;20041;-73
2023/06/14 02:00:19;;;;;;;3.50;1.70;;;23.00;80.90;;;;;;5032981;28;20049;-73
2023/06/14 02:02:45;;;;;;;3.30;1.80;;;23.00;80.80;;;;;;5044620;28;20044;-74
2023/06/14 02:05:11;;;;;;;5.28;1.90;;;23.00;80.90;;;;;;5048106;28;20041;-73
2023/06/14 02:07:37;;;;;;;4.65;2.00;;;22.90;80.90;;;;;;5033188;28;20042;-73
2023/06/14 02:10:05;;;;;;;3.03;1.70;;;22.90;80.90;;;;;;5049055;28;20049;-73
2023/06/14 02:12:31;;;;;;;3.53;1.70;;;23.00;81.20;;;;;;5050773;28;20118;-73
2023/06/14 02:14:57;;;;;;;2.60;1.60;;;23.00;81.10;;;;;;5048144;28;20483;-73
2023/06/14 02:17:23;;;;;;;3.40;1.70;;;23.00;81.10;;;;;;5032901;28;20144;-73
2023/06/14 02:19:50;;;;;;;3.15;1.70;;;23.00;81.10;;;;;;5032490;28;20057;-73
2023/06/14 02:22:16;;;;;;;2.55;1.60;;;23.00;81.20;;;;;;5034366;28;20047;-76
2023/06/14 02:24:43;;;;;;;3.45;1.80;;;22.90;81.20;;;;;;5033964;28;20079;-73
2023/06/14 02:27:12;;;;;;;2.55;1.58;;;23.00;81.30;;;;;;5034351;28;20064;-73
2023/06/14 02:29:37;;;;;;;7.60;1.83;;;23.00;81.20;;;;;;5034596;28;20037;-73
2023/06/14 02:32:04;;;;;;;3.88;1.80;;;23.00;81.30;;;;;;5031945;28;20473;-73
2023/06/14 02:34:30;;;;;;;2.38;1.67;;;23.00;81.30;;;;;;5045153;28;20188;-73
2023/06/14 02:36:57;;;;;;;4.80;1.60;;;22.90;81.40;;;;;;5033202;28;20132;-73
2023/06/14 02:39:23;;;;;;;3.53;1.80;;;22.90;81.40;;;;;;5013093;28;20045;-73
2023/06/14 02:41:50;;;;;;;3.72;2.10;;;23.00;81.40;;;;;;5015414;28;20050;-76
2023/06/14 02:44:17;;;;;;;3.10;1.70;;;22.90;81.60;;;;;;5032254;28;20160;-73
2023/06/14 02:46:43;;;;;;;3.72;2.03;;;23.00;81.80;;;;;;5033521;28;20398;-73
2023/06/14 02:49:10;;;;;;;3.60;1.70;;;23.00;81.80;;;;;;5031571;28;20045;-73
2023/06/14 02:51:35;;;;;;;4.85;1.65;;;23.00;81.80;;;;;;5015204;28;20535;-73
2023/06/14 02:54:01;;;;;;;4.05;1.70;;;23.00;81.80;;;;;;5017763;28;20128;-73
2023/06/14 02:56:27;;;;;;;3.45;1.80;;;22.90;81.80;;;;;;5031643;28;20037;-73
2023/06/14 02:58:53;;;;;;;3.00;1.75;;;22.90;81.90;;;;;;5044231;28;20046;-73
2023/06/14 03:01:20;;;;;;;3.15;2.00;;;22.90;81.70;;;;;;5041909;28;20110;-72
2023/06/14 03:03:46;;;;;;;4.05;1.77;;;22.90;82.10;;;;;;5031932;28;20431;-73
2023/06/14 03:06:13;;;;;;;3.38;1.85;;;22.90;82.20;;;;;;5061484;28;20045;-73
2023/06/14 03:08:41;;;;;;;3.70;1.80;;;23.00;82.00;;;;;;5031054;28;20065;-73
2023/06/14 03:11:08;;;;;;;3.85;2.00;;;23.00;81.90;;;;;;5045417;28;20049;-73
2023/06/14 03:13:37;;;;;;;3.97;1.90;;;23.00;81.90;;;;;;5032924;28;20061;-73
2023/06/14 03:16:03;;;;;;;4.88;1.80;;;22.90;82.00;;;;;;5045932;28;20072;-73
2023/06/14 03:18:35;;;;;;;4.63;1.92;;;22.90;82.10;;;;;;5018972;28;20041;-73
2023/06/14 03:21:01;;;;;;;4.10;1.80;;;22.90;82.20;;;;;;5015288;28;20046;-73
2023/06/14 03:23:27;;;;;;;5.68;1.90;;;22.90;82.20;;;;;;5011477;28;20053;-73
2023/06/14 03:25:53;;;;;;;4.50;1.88;;;22.90;82.40;;;;;;5034491;28;20064;-76
2023/06/14 03:28:18;;;;;;;5.25;1.95;;;22.90;82.20;;;;;;5043233;28;20486;-73
2023/06/14 03:30:44;;;;;;;7.20;1.88;;;22.90;82.50;;;;;;5023197;28;20083;-73
2023/06/14 03:33:10;;;;;;;3.20;1.88;;;22.90;82.20;;;;;;5036855;28;20046;-74
2023/06/14 03:35:36;;;;;;;3.28;1.92;;;22.90;82.60;;;;;;4999360;28;20107;-73
2023/06/14 03:38:02;;;;;;;2.72;1.80;;;22.90;82.30;;;;;;5041103;28;20056;-73
2023/06/14 03:40:28;;;;;;;4.53;1.98;;;22.90;82.50;;;;;;5034069;28;20092;-73
2023/06/14 03:42:54;;;;;;;4.65;1.90;;;22.80;82.60;;;;;;5042745;28;20076;-73
2023/06/14 03:45:20;;;;;;;4.75;2.20;;;22.80;82.70;;;;;;5034793;28;20124;-72
2023/06/14 03:47:47;;;;;;;4.32;2.45;;;22.80;82.70;;;;;;5038437;28;20044;-74
2023/06/14 03:50:12;;;;;;;3.88;2.38;;;22.80;82.80;;;;;;5033925;28;20052;-73
2023/06/14 03:52:38;;;;;;;4.35;2.10;;;22.80;82.90;;;;;;5035975;28;20049;-73
2023/06/14 03:55:04;;;;;;;3.40;1.95;;;22.80;83.00;;;;;;5030776;28;20586;-73
2023/06/14 03:57:30;;;;;;;4.88;2.30;;;22.80;82.90;;;;;;5026925;28;20296;-73
2023/06/14 03:59:56;;;;;;;4.53;2.10;;;22.70;83.00;;;;;;5041778;28;20037;-73
2023/06/14 04:02:22;;;;;;;3.63;2.10;;;22.70;83.10;;;;;;5041610;28;20049;-73
2023/06/14 04:04:48;;;;;;;2.92;2.03;;;22.80;83.20;;;;;;5023031;28;20106;-72
2023/06/14 04:07:19;;;;;;;4.05;2.13;;;22.70;83.00;;;;;;5034288;28;20104;-73
2023/06/14 04:09:45;;;;;;;3.42;2.17;;;22.80;83.70;;;;;;5021294;28;20061;-73
2023/06/14 04:12:14;;;;;;;5.65;2.60;;;22.70;83.20;;;;;;5032404;28;20491;-72
2023/06/14 04:14:40;;;;;;;2.88;1.88;;;22.70;83.40;;;;;;5030866;28;20079;-73
2023/06/14 04:17:06;;;;;;;5.70;2.22;;;22.70;83.30;;;;;;5008231;28;20127;-73
2023/06/14 04:19:32;;;;;;;4.25;2.17;;;22.70;83.40;;;;;;5030542;28;20543;-73
2023/06/14 04:22:01;;;;;;;7.07;2.28;;;22.70;83.50;;;;;;5042174;28;20143;-73
2023/06/14 04:24:31;;;;;;;4.68;2.35;;;22.60;83.70;;;;;;5031581;28;20053;-75
2023/06/14 04:26:58;;;;;;;3.22;2.15;;;22.70;83.70;;;;;;5031733;28;20483;-73
2023/06/14 04:29:26;;;;;;;4.75;2.40;;;22.70;83.80;;;;;;5032264;28;20072;-73
2023/06/14 04:31:54;;;;;;;3.72;2.20;;;22.70;83.80;;;;;;5047694;28;20057;-73
2023/06/14 04:34:21;;;;;;;4.20;2.47;;;22.60;83.80;;;;;;5031653;28;20099;-73
2023/06/14 04:36:53;;;;;;;5.75;2.53;;;22.50;84.10;;;;;;5021012;28;20049;-73
2023/06/14 04:39:22;;;;;;;7.32;2.78;;;22.60;84.20;;;;;;5049078;28;20049;-73
2023/06/14 04:41:52;;;;;;;6.63;2.70;;;22.60;84.20;;;;;;5015060;28;20510;-73
2023/06/14 04:44:19;;;;;;;3.85;2.17;;;22.60;84.30;;;;;;5024763;28;20049;-73
2023/06/14 04:46:46;;;;;;;5.18;2.28;;;22.60;84.30;;;;;;5038959;28;20057;-73
2023/06/14 04:49:18;;;;;;;4.18;2.40;;;22.60;84.40;;;;;;5019994;28;20037;-74
2023/06/14 04:51:45;;;;;;;5.93;2.60;;;22.60;84.30;;;;;;5031537;28;20052;-73
2023/06/14 04:54:14;;;;;;;4.60;2.33;;;22.60;84.40;;;;;;5021120;28;20045;-73
2023/06/14 04:56:42;;;;;;;6.55;2.30;;;22.60;84.50;;;;;;5029787;28;20458;-73
2023/06/14 04:59:08;;;;;;;5.95;2.50;;;22.60;84.60;;;;;;5013442;28;20562;-76
2023/06/14 05:01:35;;;;;;;5.60;2.60;;;22.60;84.60;;;;;;5030303;28;20057;-73
2023/06/14 05:04:01;;;;;;;5.53;2.53;;;22.70;84.60;;;;;;5046928;28;20042;-73
2023/06/14 05:06:27;;;;;;;3.90;2.20;;;22.80;84.60;;;;;;5023792;28;20052;-73
2023/06/14 05:08:53;;;;;;;6.18;2.30;;;22.80;84.60;;;;;;5029480;28;20042;-73
2023/06/14 05:11:20;;;;;;;3.42;2.20;;;22.80;84.60;;;;;;5029800;28;20068;-73
2023/06/14 05:13:46;;;;;;;3.78;2.28;;;22.80;84.60;;;;;;5029549;28;20061;-73
2023/06/14 05:16:12;;;;;;;5.13;2.55;;;22.80;84.60;;;;;;5021203;28;20049;-74
2023/06/14 05:18:40;;;;;;;4.95;2.53;;;22.90;84.60;;;;;;5020009;28;20045;-74
2023/06/14 05:21:06;;;;;;;4.80;2.40;;;23.00;84.60;;;;;;5028861;28;20045;-73
2023/06/14 05:23:31;;;;;;;8.20;2.58;;;23.00;84.50;;;;;;5035120;28;20506;-73
2023/06/14 05:25:57;;;;;;;4.70;2.40;;;23.10;84.50;;;;;;5030746;28;20049;-73
2023/06/14 05:28:24;;;;;;;5.43;2.80;;;23.20;84.60;;;;;;5046063;28;20063;-73
2023/06/14 05:30:50;;;;;;;6.22;2.72;;;23.20;84.20;;;;;;5045269;28;20140;-73
2023/06/14 05:33:16;;;;;;;6.35;2.50;;;23.20;84.10;;;;;;5017083;28;20522;-74
2023/06/14 05:35:42;;;;;;;6.13;2.60;;;23.20;84.20;;;;;;5018575;28;20061;-73
2023/06/14 05:38:08;;;;;;;7.57;2.83;;;23.20;84.10;;;;;;5025723;28;20442;-73
2023/06/14 05:40:34;;;;;;;8.00;2.70;;;23.40;84.10;;;;;;5034977;28;20061;-73
2023/06/14 05:42:59;;;;;;;5.85;2.97;;;23.40;84.20;;;;;;5042951;28;20406;-73
2023/06/14 05:45:25;;;;;;;5.10;2.72;;;23.40;84.00;;;;;;5026295;28;20049;-74
2023/06/14 05:47:52;;;;;;;5.00;2.63;;;23.40;84.00;;;;;;5043761;28;20041;-74
2023/06/14 05:50:17;;;;;;;6.30;2.92;;;23.50;83.80;;;;;;5035474;28;20102;-74
2023/06/14 05:52:43;;;;;;;4.10;2.50;;;23.50;83.60;;;;;;5041051;28;20132;-74
2023/06/14 05:55:11;;;;;;;5.28;2.58;;;23.60;83.70;;;;;;5028325;28;20178;-74
2023/06/14 05:57:37;;;;;;;5.78;2.65;;;23.60;83.60;;;;;;5020203;28;20052;-74
2023/06/14 06:00:15;;;;;;;5.30;2.67;;;23.70;83.50;;;;;;5044718;28;20049;-74
2023/06/14 06:02:45;;;;;;;5.55;2.90;;;23.70;83.50;;;;;;5034265;28;20179;-74
2023/06/14 06:05:11;;;;;;;7.65;2.42;;;23.80;83.40;;;;;;5047383;28;20087;-75
2023/06/14 06:07:37;;;;;;;4.97;2.70;;;23.80;83.30;;;;;;5042279;28;20554;-74
2023/06/14 06:10:04;;;;;;;6.65;2.90;;;23.80;83.20;;;;;;5016149;28;20728;-73
2023/06/14 06:12:30;;;;;;;4.25;2.92;;;23.90;83.30;;;;;;5039284;28;20561;-74
2023/06/14 06:14:56;;;;;;;4.95;2.67;;;23.90;83.10;;;;;;5031418;28;20124;-74
2023/06/14 06:17:22;;;;;;;7.47;2.63;;;24.00;83.10;;;;;;5046740;28;20180;-73
2023/06/14 06:19:47;;;;;;;6.72;2.40;;;24.10;88.50;;;;;;5043466;28;20128;-73
2023/06/14 06:22:13;;;;;;;4.95;2.50;;;24.20;82.70;;;;;;5033758;28;20142;-74
2023/06/14 06:24:39;;;;;;;4.45;2.50;;;24.10;82.70;;;;;;5013395;28;20056;-74
2023/06/14 06:27:07;;;;;;;8.52;2.90;;;24.10;82.70;;;;;;5022722;28;20045;-74
2023/06/14 06:29:33;;;;;;;7.13;2.75;;;24.20;82.60;;;;;;5004312;28;20877;-74
2023/06/14 06:31:59;;;;;;;5.90;3.00;;;24.20;82.60;;;;;;5036029;28;20056;-75
2023/06/14 06:34:25;;;;;;;3.80;2.70;;;24.20;82.60;;;;;;5043158;28;20478;-73
2023/06/14 06:36:51;;;;;;;5.40;2.70;;;24.30;82.60;;;;;;5024798;28;20050;-72
2023/06/14 06:39:17;;;;;;;4.13;2.50;;;24.30;82.50;;;;;;5039484;28;20055;-73
2023/06/14 06:41:42;;;;;;;5.25;2.42;;;24.30;82.50;;;;;;5048119;28;20442;-73
2023/06/14 06:44:10;;;;;;;7.20;2.95;;;24.30;82.50;;;;;;5019420;28;20044;-72
2023/06/14 06:46:39;;;;;;;4.60;2.75;;;24.40;82.50;;;;;;5036977;28;20470;-72
2023/06/14 06:49:06;;;;;;;5.03;2.85;;;24.40;82.50;;;;;;5022999;28;20049;-72
2023/06/14 06:51:32;;;;;;;6.10;2.60;;;24.40;82.40;;;;;;5026361;28;20041;-73
2023/06/14 06:53:58;;;;;;;5.40;2.60;;;24.40;82.40;;;;;;5037550;28;20462;-72
2023/06/14 06:56:24;;;;;;;7.38;2.60;;;24.40;82.30;;;;;;5028649;28;20045;-75
2023/06/14 06:58:53;;;;;;;6.97;2.67;;;24.50;82.30;;;;;;5035858;28;20386;-73
2023/06/14 07:01:19;;;;;;;5.43;2.70;;;24.40;82.30;;;;;;5028822;28;20076;-72
2023/06/14 07:03:46;;;;;;;5.60;2.47;;;24.50;82.20;;;;;;5016946;28;20057;-76
2023/06/14 07:06:12;;;;;;;4.13;2.13;;;24.50;82.10;;;;;;5033454;28;20038;-72
2023/06/14 07:08:38;;;;;;;4.15;2.42;;;24.60;82.00;;;;;;5031735;28;20115;-72
2023/06/14 07:11:04;;;;;;;6.35;2.85;;;24.60;81.90;;;;;;5028028;28;20045;-72
2023/06/14 07:13:31;;;;;;;5.53;2.50;;;24.60;81.80;;;;;;5032661;28;20045;-72
2023/06/14 07:16:00;;;;;;;5.13;2.80;;;24.60;81.90;;;;;;5031823;28;20045;-73
2023/06/14 07:18:26;;;;;;;3.30;2.20;;;24.60;81.90;;;;;;5038280;28;20041;-75
2023/06/14 07:20:53;;;;;;;4.80;2.30;;;24.60;81.70;;;;;;5031618;28;20053;-72
2023/06/14 07:23:20;;;;;;;4.18;2.30;;;24.70;81.70;;;;;;5037428;28;20068;-72
2023/06/14 07:25:46;;;;;;;4.65;2.60;;;24.70;81.60;;;;;;5034303;28;20045;-72
2023/06/14 07:28:11;;;;;;;5.15;2.60;;;24.70;81.50;;;;;;5032845;28;20189;-73
2023/06/14 07:30:37;;;;;;;3.35;2.17;;;24.70;81.50;;;;;;5034792;28;20053;-72
2023/06/14 07:33:03;;;;;;;6.05;2.30;;;24.70;81.50;;;;;;5032974;28;20048;-72
2023/06/14 07:35:28;;;;;;;3.72;2.38;;;24.70;81.30;;;;;;5003816;28;20046;-75
2023/06/14 07:37:54;;;;;;;5.47;2.50;;;24.80;81.30;;;;;;5036783;28;20111;-72
2023/06/14 07:40:20;;;;;;;5.03;2.22;;;24.80;81.20;;;;;;5049177;28;20037;-74
2023/06/14 07:42:46;;;;;;;5.13;2.25;;;24.90;90.10;;;;;;5045562;28;20049;-73
2023/06/14 07:45:14;;;;;;;5.32;2.20;;;24.80;81.20;;;;;;5039909;28;20041;-73
2023/06/14 07:47:39;;;;;;;6.28;2.50;;;24.70;81.30;;;;;;5030232;28;20049;-73
2023/06/14 07:50:06;;;;;;;5.35;2.25;;;24.70;81.30;;;;;;5030578;28;20048;-73
2023/06/14 07:52:31;;;;;;;4.57;2.58;;;24.70;82.00;;;;;;5018478;28;20403;-74
2023/06/14 07:54:58;;;;;;;4.10;2.40;;;24.70;81.50;;;;;;5039595;28;20055;-73
2023/06/14 07:57:24;;;;;;;5.60;2.28;;;24.70;81.40;;;;;;5027532;28;20574;-73
2023/06/14 07:59:50;;;;;;;5.65;2.30;;;24.70;81.40;;;;;;5030252;28;20107;-73
2023/06/14 08:02:15;;;;;;;6.65;2.67;;;24.70;81.30;;;;;;5014343;28;20049;-73
2023/06/14 08:04:42;;;;;;;7.85;2.67;;;24.70;81.30;;;;;;5039195;28;20049;-76
2023/06/14 08:07:08;;;;;;;8.63;2.70;;;24.70;81.90;;;;;;5015828;28;20046;-81
2023/06/14 08:09:37;;;;;;;4.65;2.42;;;25.00;83.20;;;;;;5027653;28;20053;-80
2023/06/14 08:12:07;;;;;;;4.63;2.40;;;25.00;81.70;;;;;;5031709;28;20057;-81
2023/06/14 08:14:33;;;;;;;5.30;2.45;;;25.00;81.50;;;;;;5020187;28;20061;-81
2023/06/14 08:16:59;;;;;;;4.90;2.50;;;25.10;81.50;;;;;;5037867;28;20052;-76
2023/06/14 08:19:25;;;;;;;8.25;2.35;;;25.10;81.50;;;;;;5030860;28;20099;-74
2023/06/14 08:21:51;;;;;;;5.82;2.50;;;25.10;81.70;;;;;;5021111;28;20081;-73
2023/06/14 08:24:18;;;;;;;4.27;2.30;;;25.20;81.30;;;;;;5033013;28;20437;-75
2023/06/14 08:26:44;;;;;;;4.32;2.33;;;25.40;81.00;;;;;;5024632;28;20049;-73
2023/06/14 08:29:10;;;;;;;7.00;2.50;;;25.30;80.90;;;;;;5026751;28;20103;-78
2023/06/14 08:31:36;;;;;;;7.78;2.70;;;25.20;81.20;;;;;;5036813;28;20041;-77
2023/06/14 08:34:02;;;;;;;5.78;2.60;;;25.20;81.10;;;;;;5040746;28;20047;-81
2023/06/14 08:36:27;;;;;;;6.63;3.50;;;25.20;81.00;;;;;;5044363;28;20094;-77
2023/06/14 08:38:53;;;;;;;14.73;3.28;;;25.20;81.00;;;;;;5038843;28;20049;-79
2023/06/14 08:41:25;;;;;;;8.23;3.22;;;25.20;81.20;;;;;;5023747;28;20050;-73
2023/06/14 08:43:52;;;;;;;6.53;3.30;;;25.10;81.10;;;;;;5033633;28;20052;-73
2023/06/14 08:46:19;;;;;;;9.93;4.13;;;25.10;81.20;;;;;;5024885;28;20053;-76
2023/06/14 08:48:56;;;;;;;16.92;5.00;;;25.10;81.20;;;;;;5032829;28;20098;-76
2023/06/14 08:51:24;;;;;;;15.95;5.00;;;25.50;80.90;;;;;;5030302;28;24321;-73
2023/06/14 08:53:58;;;;;;;12.70;4.45;;;25.70;80.70;;;;;;5028118;28;26064;-73
2023/06/14 08:56:31;;;;;;;17.13;5.15;;;25.90;80.50;;;;;;5035390;28;86286;-73
2023/06/14 08:59:09;;;;;;;15.65;4.75;;;26.00;80.40;;;;;;5039145;28;20045;-73
2023/06/14 09:01:36;;;;;;;16.27;5.40;;;26.10;80.30;;;;;;5036412;28;20048;-75
2023/06/14 09:04:05;;;;;;;14.40;5.63;;;26.10;79.80;;;;;;5029111;28;20094;-74
2023/06/14 09:06:31;;;;;;;16.63;5.30;;;26.20;79.60;;;;;;5013133;28;20054;-76
2023/06/14 09:08:57;;;;;;;15.85;4.90;;;26.30;79.70;;;;;;5033858;28;20510;-72
2023/06/14 09:11:24;;;;;;;18.77;5.38;;;26.40;79.70;;;;;;5013095;28;22260;-76
2023/06/14 09:13:50;;;;;;;13.10;4.53;;;26.40;79.50;;;;;;5029690;28;20045;-75
2023/06/14 09:16:16;;;;;;;16.90;5.18;;;26.40;79.40;;;;;;5036260;28;175901;-72
2023/06/14 09:18:45;;;;;;;19.13;5.13;;;26.50;80.40;;;;;;5052224;28;20040;-74
2023/06/14 09:22:48;;;;;;;13.40;4.45;;;26.50;79.70;;;;;;5022561;27;1320049;-74
2023/06/14 09:25:17;;;;;;;12.40;4.68;;;26.50;79.60;;;;;;5056169;28;20190;-78
2023/06/14 09:27:45;;;;;;;12.93;3.90;;;26.60;79.50;;;;;;5034200;28;20048;-75
2023/06/14 09:30:11;;;;;;;8.65;4.03;;;26.70;79.70;;;;;;5058644;28;20040;-76
2023/06/14 09:32:39;;;;;;;7.38;3.92;;;26.80;79.50;;;;;;5064557;28;20114;-75
2023/06/14 09:35:07;;;;;;;12.45;4.57;;;26.80;79.80;;;;;;5047777;28;20098;-81
2023/06/14 09:37:33;;;;;;;20.42;3.95;;;26.80;79.80;;;;;;5057353;28;20040;-77
2023/06/14 09:39:59;;;;;;;9.38;4.00;;;26.80;80.70;;;;;;5047227;28;20495;-80
2023/06/14 09:42:25;;;;;;;10.10;3.50;;;26.90;80.10;;;;;;5028718;28;20041;-77
2023/06/14 09:44:53;;;;;;;7.97;3.40;;;26.90;79.60;;;;;;5031924;28;20102;-76
2023/06/14 09:47:20;;;;;;;7.95;3.42;;;26.90;79.50;;;;;;5045841;28;20110;-84
2023/06/14 09:49:46;;;;;;;10.23;3.58;;;26.90;79.40;;;;;;5032553;28;20474;-82
2023/06/14 09:52:18;;;;;;;8.48;3.13;;;26.80;79.60;;;;;;5031421;28;20175;-79
2023/06/14 09:54:52;;;;;;;8.65;3.92;;;26.80;79.40;;;;;;5064410;28;20048;-77
2023/06/14 09:57:23;;;;;;;7.82;3.17;;;26.90;79.30;;;;;;5060207;28;20041;-77
2023/06/14 09:59:56;;;;;;;7.10;3.17;;;26.90;79.30;;;;;;5052550;28;20396;-82
2023/06/14 10:02:25;;;;;;;8.43;3.03;;;26.80;79.30;;;;;;5045785;28;20087;-85
2023/06/14 10:05:12;;;;;;;7.80;3.05;;;26.90;79.20;;;;;;5014142;28;20049;-82
2023/06/14 10:07:47;;;;;;;8.38;3.25;;;26.90;78.90;;;;;;5016296;28;20042;-80
2023/06/14 10:10:13;;;;;;;8.20;3.25;;;27.00;79.00;;;;;;5065825;28;20057;-76
2023/06/14 10:12:39;;;;;;;7.15;3.17;;;27.00;78.90;;;;;;5038763;28;20038;-81
2023/06/14 10:15:10;;;;;;;7.03;3.08;;;27.00;79.20;;;;;;5066438;28;20054;-80
2023/06/14 10:17:59;;;;;;;7.55;3.25;;;27.00;78.60;;;;;;5013770;28;20045;-83
2023/06/14 10:20:35;;;;;;;7.22;3.00;;;27.00;78.80;;;;;;5042811;28;20045;-78
2023/06/14 10:23:17;;;;;;;6.78;2.50;;;27.00;79.30;;;;;;5031257;28;20053;-80
2023/06/14 10:25:43;;;;;;;8.27;3.10;;;27.00;79.20;;;;;;5063502;28;20081;-75
2023/06/14 10:28:23;;;;;;;5.05;2.85;;;27.00;79.00;;;;;;5027924;28;20139;-74
2023/06/14 10:31:08;;;;;;;9.73;2.80;;;27.00;79.20;;;;;;5039709;28;20435;-79
2023/06/14 10:33:49;;;;;;;9.15;2.42;;;27.00;79.30;;;;;;5022932;28;20076;-83
2023/06/14 10:36:28;;;;;;;4.80;2.70;;;27.70;78.90;;;;;;5027845;28;20083;-71
2023/06/14 10:39:10;;;;;;;5.57;2.47;;;28.00;78.10;;;;;;5020363;28;20046;-85
2023/06/14 10:41:41;;;;;;;9.23;3.00;;;28.10;78.10;;;;;;5028736;28;20436;-85
2023/06/14 10:44:13;;;;;;;10.07;2.78;;;28.00;79.30;;;;;;5027964;28;20044;-90
2023/06/14 10:46:40;;;;;;;10.55;2.80;;;28.30;79.30;;;;;;5019351;28;20435;-74
2023/06/14 11:01:43;;;;;;;4.10;2.00;;;28.60;76.10;;;;;;5128927;27;20180;-76
2023/06/14 11:04:11;;;;;;;4.07;2.33;;;28.50;76.70;;;;;;5062046;28;20424;-70
2023/06/14 11:06:52;;;;;;;5.10;2.25;;;28.50;76.30;;;;;;5048518;28;20092;-73
2023/06/14 11:09:41;;;;;;;3.95;2.28;;;28.50;76.40;;;;;;5062971;28;20451;-72
2023/06/14 11:12:10;;;;;;;4.43;2.25;;;28.40;76.50;;;;;;5067058;28;20390;-71
2023/06/14 11:14:36;;;;;;;3.42;2.13;;;28.30;76.40;;;;;;5068881;28;20044;-76
2023/06/14 11:17:02;;;;;;;6.63;2.13;;;28.20;77.20;;;;;;5032294;28;20049;-77
2023/06/14 11:19:29;;;;;;;3.25;2.08;;;27.80;77.30;;;;;;5042740;28;20522;-75
2023/06/14 11:21:55;;;;;;;4.15;2.40;;;27.50;77.20;;;;;;5063538;28;20048;-74
2023/06/14 11:24:20;;;;;;;5.00;2.38;;;27.30;77.70;;;;;;5060156;28;20053;-73
2023/06/14 11:26:48;;;;;;;5.40;2.30;;;27.20;77.70;;;;;;5063950;28;20045;-77
2023/06/14 11:29:15;;;;;;;3.83;2.17;;;27.10;77.80;;;;;;5063855;28;20382;-75
2023/06/14 11:31:45;;;;;;;5.22;2.20;;;26.90;78.60;;;;;;5067703;28;20102;-74
2023/06/14 11:34:12;;;;;;;4.90;2.30;;;26.80;78.10;;;;;;5063884;28;20743;-82
2023/06/14 11:36:38;;;;;;;5.05;2.38;;;26.80;78.50;;;;;;5049902;28;20040;-79
2023/06/14 11:39:06;;;;;;;4.68;2.33;;;26.60;78.30;;;;;;5033261;28;20047;-79
2023/06/14 11:41:43;;;;;;;5.18;2.10;;;26.50;78.10;;;;;;5033594;28;20722;-82
2023/06/14 11:44:10;;;;;;;4.35;2.13;;;26.40;78.50;;;;;;5050249;28;20122;-79
2023/06/14 11:46:36;;;;;;;4.30;2.30;;;26.40;78.60;;;;;;5060152;28;20044;-79
2023/06/14 11:49:04;;;;;;;7.13;2.00;;;26.30;78.60;;;;;;5053991;28;20067;-82
2023/06/14 11:51:31;;;;;;;4.20;2.28;;;26.20;78.90;;;;;;5023615;28;20045;-80
2023/06/14 11:53:58;;;;;;;8.63;2.38;;;26.10;78.70;;;;;;5033366;28;20427;-74
2023/06/14 11:56:25;;;;;;;3.92;2.20;;;26.20;79.00;;;;;;5047372;28;20048;-85
2023/06/14 11:58:53;;;;;;;7.65;2.30;;;;;;;;;;5056783;28;20442;-80
2023/06/14 12:01:49;;;;;;;;;;;26.60;91.00;;;;;;5130251;27;20384;-80
2023/06/14 12:04:24;;;;;;;4.03;2.20;;;26.80;81.60;;;;;;5111013;28;20420;-74
2023/06/14 12:06:53;;;;;;;3.97;2.40;;;26.90;80.70;;;;;;5076201;28;20082;-82
2023/06/14 12:09:19;;;;;;;4.43;2.10;;;26.90;79.60;;;;;;5051505;28;20040;-84
2023/06/14 12:11:45;;;;;;;3.20;1.83;;;26.90;79.40;;;;;;5053990;28;20127;-77
2023/06/14 12:14:11;;;;;;;8.50;2.20;;;26.80;79.10;;;;;;5070679;28;20128;-80
2023/06/14 12:16:43;;;;;;;6.00;1.92;;;26.70;79.00;;;;;;5075143;28;20122;-84
2023/06/14 12:19:18;;;;;;;4.05;1.98;;;26.70;78.90;;;;;;5074278;28;20302;-84
2023/06/14 12:21:48;;;;;;;6.80;2.00;;;26.80;79.80;;;;;;5068737;28;20037;-75
2023/06/14 12:24:14;;;;;;;3.53;2.03;;;26.70;78.60;;;;;;5069628;28;20043;-82
2023/06/14 12:26:41;;;;;;;3.47;1.80;;;26.70;79.20;;;;;;5050642;28;20051;-78
2023/06/14 12:29:07;;;;;;;3.42;2.08;;;26.60;79.00;;;;;;5074500;28;20110;-71
2023/06/14 12:31:33;;;;;;;6.55;2.10;;;26.60;78.90;;;;;;5086743;28;20036;-77
2023/06/14 12:33:59;;;;;;;5.05;2.10;;;26.50;78.90;;;;;;5043606;28;20055;-77
2023/06/14 12:36:26;;;;;;;3.67;1.98;;;26.50;79.20;;;;;;5051439;28;20311;-73
2023/06/14 12:38:54;;;;;;;4.97;1.92;;;26.50;79.10;;;;;;5083654;28;20043;-78
2023/06/14 12:41:22;;;;;;;3.53;2.03;;;26.50;79.00;;;;;;5060777;28;20036;-80
2023/06/14 12:43:48;;;;;;;2.95;1.80;;;26.50;79.00;;;;;;5059018;28;20088;-76
2023/06/14 12:46:14;;;;;;;4.78;1.80;;;26.50;78.90;;;;;;5062183;28;20120;-75
2023/06/14 12:48:40;;;;;;;2.03;1.60;;;26.50;78.10;;;;;;5070817;28;20143;-76
2023/06/14 12:51:05;;;;;;;3.13;1.92;;;26.50;78.00;;;;;;5053446;28;20070;-78
2023/06/14 12:53:31;;;;;;;5.18;1.90;;;26.60;77.90;;;;;;5054304;28;20127;-74
2023/06/14 12:55:57;;;;;;;3.28;2.00;;;26.50;78.30;;;;;;5067606;28;20125;-76
2023/06/14 12:58:23;;;;;;;4.43;2.03;;;26.40;78.20;;;;;;5063954;28;20496;-74
2023/06/14 13:00:49;;;;;;;2.75;1.77;;;26.40;78.20;;;;;;5069187;28;20401;-73
2023/06/14 13:03:15;;;;;;;2.92;1.70;;;26.30;78.40;;;;;;5068990;28;20048;-73